Airfield :
LOGIN :

Register | Disclaimer

   EN    FR    IT 

 










Legend :    VFR   Marginal VFR   IFR   Intensive IFR   Very Intensive IFR
Visi :
Ceiling :
>= 8 km
>= 3000ft
5 to 8 km
1000 to 3000 ft
1500m to 5 km
500 to 1000 ft
800 to 1500m
200 to 500 ft
< 800m
< 200 ft
Symbols :   Thunderstorms  Fog  Heavy snow  Heavy precipitations  Wind > 20 kt
SIGMETs :     Misc.  Thunderstorms  Icing  Turbulence  Mountain Waves  Volcanic Ashes






- Airport Elevation : 353 ft
- IATA code : LIN


LIML - Milano Linate

CURRENT METAR :
  • 270820Z 16003KT 2500 BR SCT005 BKN015 07/07 Q0992 TEMPO 1000 BCFG

EXPIRED METARs :
  • 270750Z VRB01KT 2000 BCFG BKN005 BKN010 07/07 Q0992 TEMPO 1000 BCFG
  • 270720Z 21002KT 2000 BCFG FEW010 SCT040 06/06 Q0992 TEMPO 1000 BCFG
  • 270650Z VRB01KT 2000 BCFG SCT040 06/06 Q0992 TEMPO 1000 BCFG
  • 270620Z 33002KT 3000 R36/1200D BCFG SCT040 05/05 Q0991 NOSIG
  • 270550Z VRB02KT 5000 BR FEW045 06/06 Q0991 NOSIG

TAF TAF LIML
Valid from the 27 at 06:00 until the 28 at 06:00 UTC


270500Z 2706/2806 VRB05KT 3000 BR FEW050
TEMPO 2706/2709 0600 FG OVC002
BECMG 2708/2710 7000
BECMG 2714/2716 10010KT
TEMPO 2718/2724 4000 SHRA
BECMG 2720/2722 23007KT



MET'MAP, your aeronautical weather chart ! - Copyright ORBIFLY December 2007 - Disclaimer

ORBIFLY MET'MAP TEAM :

Programming & Development : Alexandra Zaïnal
Concept & original design : Baudouin d'Aumeries
Assistance for programming : Marc-Olivier Méhu
Technical & hardware support : Manuel Goepfert

Contact : metmap@orbifly.com




SOURCES & CREDITS :

   NOAA